St Helier, United Kingdom
Current Conditions -  °F | °C
As of 3:20 PM on Sunday 25 Jan 2015 (Local Time) from EGJJ Reporting Station
Broken Clouds Broken Clouds  
Wind Chill: 43°   Ceiling: 3500
Heat Index: 48°   Visibility: 6mi
Dew Point: 39°   Wind: 12mph
Humidity: 71%   Direction: 280°W
Pressure: 30.48"   Gusts: NA
Location:  49.18°N, 2.1°W
Report Text: EGJJ 251420Z 28010KT 9999 FEW023 BKN035 09/04 Q1032 NOSIG
Loading
Personal Weather Stations






























Interactive Weather Map New forecast layout! Learn more

10-Day Weather Forecast

Advertisements
Track Severe Weather on mobile